EGSS/STN METAR and TAF weather

Enter ICAO airport designator
Station Type Date Time Source
EGSS METAR 2024/06/16 09:20 UTC NOAA

EGSS 160920Z 24011KT 9999 BKN028TCU 15/10 Q1001


Station Type Date Time Source
EGSS Decoded METAR 2024/06/16 09:20 UTC NOAA

Stansted Airport, United Kingdom (EGSS) 51-53N 000-14E 0M
Jun 16, 2024 - 05:20 AM EDT / 2024.06.16 0920 UTC
Wind: from the WSW (240 degrees) at 13 MPH (11 KT):0
Visibility: greater than 7 mile(s):0
Sky conditions: mostly cloudy
Weather: Towering cumulus clouds observed
Temperature: 59 F (15 C)
Dew Point: 50 F (10 C)
Relative Humidity: 72%
Pressure (altimeter): 29.56 in. Hg (1001 hPa)
ob: EGSS 160920Z 24011KT 9999 BKN028TCU 15/10 Q1001
cycle: 9

Station Type Date Time Source
EGSS TAF 2024/06/16 06:09 UTC NOAA